Terminal Aerodrome Forecast
Issued by NWS

Home | Current Version | Previous Version | Text Only | Print | Product List | Glossary On
Versions: 1 2 3 4 5 6 7 8 9 10 11 12 13 14 15 16 17 18 19 20 21 22 23 24 25 26 27 28 29 30 31 32 33 34 35 36 37 38 39 40 41 42 43 44 45 46 47
000
FTUS45 KBOU 291130
TAFBJC
TAF
KBJC 291130Z 2912/3012 32005KT P6SM SCT120 SCT200
     FM291500 VRB04KT P6SM SCT120 BKN200
     FM291700 03007KT P6SM SCT080 BKN140
     FM292000 05010KT P6SM VCTS SCT060CB BKN080
      TEMPO 2921/3001 VRB20G30KT 5SM TSRA BKN050CB
     FM300100 06008KT 5SM TSRA BKN040CB OVC050
      TEMPO 3001/3005 3SM +SHRA OVC030
     FM300500 02010KT 3SM SHRA BKN030 OVC050
      TEMPO 3005/3009 5SM -TSRA OVC050CB
     FM300900 36007KT P6SM VCTS SCT030CB OVC050
      TEMPO 3009/3012 5SM SHRA OVC030=

USA.gov is the U.S. government's official web portal to all federal, state and local government web resources and services.